Weather at Josep Tarradellas Barcelona-El Prat Airport

Public forecast

Using degrees Celsius for public forecast. Weather courtesy of forecast.io.

Current aviation weather report (METAR) for Josep Tarradellas Barcelona-El Prat Airport

Retrieved 2022/05/23 07:30 UTC (15 minutes ago):

LEBL 230730Z 06014KT CAVOK 21/18 Q1007 NOSIG

Aviation forecast (TAF) for Josep Tarradellas Barcelona-El Prat Airport

Retrieved 2022/05/23 06:27 UTC (1 hour ago):

TAF LEBL 230500Z 2306/2406 VRB04KT CAVOK TX24/2312Z TN17/2405Z BECMG 2306/2308 08010KT BECMG 2311/2313 14010KT BECMG 2318/2320 20007KT